Main page
METAR-TAF:

METAR-TAF

Airports :

Seville Airport

Seville, Spain

latitude: 37-25N, longitude: 005-54W, elevation: 34 m

Current weather observation

The report was made 26 minutes ago, at 22:00 UTC
Wind 8 kt from the Southwest, varying between South and West/Southwest
Temperature 24°C
Humidity 65%
Pressure 1014 hPa
Visibility 10 km or more
no clouds below 1500 m and no cumulonimbus

METAR: LEZL 182200Z 22008KT 190V250 CAVOK 24/17 Q1014 NOSIG

Time: 00:26 (22:26 UTC)

Forecast

The report was made 2 hours and 26 minutes ago, at 20:00 UTC
Forecast valid from 18 at 21 UTC to 19 at 21 UTC
Wind 9 kt from the South/Southwest
Visibility 10 km or more
no clouds below 1500 m and no cumulonimbus

TAF: LEZL 182000Z 1821/1921 20009KT CAVOK TX37/1915Z TN21/1906Z

Weather observations and forecasts of more than 4000 airports (METAR and TAF reports).

The available stations are represented by yellow and red dots on the map.

Hover mouse over dot to see the name of the station.

Then click to see weather observations and forecasts.

To change the map : click on the green buttons with a black cross to zoom in, on the green button with a dash to zoom out, or on the green arrows for adjacent maps.


METAR-TAF: